sensor_id;sensor_type;location;lat;lon;timestamp;pressure;altitude;pressure_sealevel;temperature;humidity
77212;BME280;66206;0.000;0.000;2023-11-18T00:00:48;98600.82;;;20.96;31.80
77212;BME280;66206;0.000;0.000;2023-11-18T00:03:15;98600.05;;;21.04;31.68
77212;BME280;66206;0.000;0.000;2023-11-18T00:05:42;98599.93;;;21.00;31.71
77212;BME280;66206;0.000;0.000;2023-11-18T00:08:08;98605.10;;;20.83;31.74
77212;BME280;66206;0.000;0.000;2023-11-18T00:10:35;98609.50;;;20.95;31.64
77212;BME280;66206;0.000;0.000;2023-11-18T00:13:02;98613.17;;;21.01;31.63
77212;BME280;66206;0.000;0.000;2023-11-18T00:15:28;98613.37;;;21.07;31.62
77212;BME280;66206;0.000;0.000;2023-11-18T00:17:55;98617.81;;;21.00;31.70
77212;BME280;66206;0.000;0.000;2023-11-18T00:20:22;98623.49;;;20.78;31.81
77212;BME280;66206;0.000;0.000;2023-11-18T00:22:48;98617.55;;;20.79;31.77
77212;BME280;66206;0.000;0.000;2023-11-18T00:25:15;98620.62;;;20.78;31.83
77212;BME280;66206;0.000;0.000;2023-11-18T00:27:42;98619.72;;;20.84;31.85
77212;BME280;66206;0.000;0.000;2023-11-18T00:30:09;98617.50;;;20.86;31.78
77212;BME280;66206;0.000;0.000;2023-11-18T00:32:36;98617.93;;;20.94;31.77
77212;BME280;66206;0.000;0.000;2023-11-18T00:35:03;98611.89;;;21.10;31.59
77212;BME280;66206;0.000;0.000;2023-11-18T00:37:29;98612.89;;;21.03;31.56
77212;BME280;66206;0.000;0.000;2023-11-18T00:39:56;98613.37;;;20.89;31.75
77212;BME280;66206;0.000;0.000;2023-11-18T00:42:23;98618.01;;;20.72;31.88
77212;BME280;66206;0.000;0.000;2023-11-18T00:44:50;98615.25;;;20.90;31.67
77212;BME280;66206;0.000;0.000;2023-11-18T00:47:16;98616.72;;;20.82;31.74
77212;BME280;66206;0.000;0.000;2023-11-18T00:49:43;98614.42;;;20.92;31.69
77212;BME280;66206;0.000;0.000;2023-11-18T00:52:10;98614.19;;;20.93;31.61
77212;BME280;66206;0.000;0.000;2023-11-18T00:54:36;98613.18;;;20.83;31.62
77212;BME280;66206;0.000;0.000;2023-11-18T00:57:03;98614.91;;;20.80;31.74
77212;BME280;66206;0.000;0.000;2023-11-18T00:59:30;98611.72;;;20.98;31.55
77212;BME280;66206;0.000;0.000;2023-11-18T01:01:57;98617.92;;;20.99;31.58
77212;BME280;66206;0.000;0.000;2023-11-18T01:04:23;98620.69;;;20.92;31.64
77212;BME280;66206;0.000;0.000;2023-11-18T01:06:50;98623.43;;;20.63;31.87
77212;BME280;66206;0.000;0.000;2023-11-18T01:09:17;98619.17;;;20.93;31.73
77212;BME280;66206;0.000;0.000;2023-11-18T01:11:43;98616.51;;;20.65;31.86
77212;BME280;66206;0.000;0.000;2023-11-18T01:14:10;98616.92;;;20.89;31.64
77212;BME280;66206;0.000;0.000;2023-11-18T01:16:37;98619.11;;;20.88;31.60
77212;BME280;66206;0.000;0.000;2023-11-18T01:19:04;98622.81;;;20.83;31.64
77212;BME280;66206;0.000;0.000;2023-11-18T01:21:30;98625.50;;;20.93;31.56
77212;BME280;66206;0.000;0.000;2023-11-18T01:23:57;98623.39;;;21.18;31.31
77212;BME280;66206;0.000;0.000;2023-11-18T01:26:24;98633.91;;;21.02;31.51
77212;BME280;66206;0.000;0.000;2023-11-18T01:28:51;98638.34;;;21.04;31.41
77212;BME280;66206;0.000;0.000;2023-11-18T01:31:17;98641.32;;;20.90;31.64
77212;BME280;66206;0.000;0.000;2023-11-18T01:33:44;98638.50;;;20.97;31.53
77212;BME280;66206;0.000;0.000;2023-11-18T01:36:11;98638.23;;;20.77;31.70
77212;BME280;66206;0.000;0.000;2023-11-18T01:38:37;98639.33;;;20.86;31.54
77212;BME280;66206;0.000;0.000;2023-11-18T01:41:04;98643.36;;;20.91;31.47
77212;BME280;66206;0.000;0.000;2023-11-18T01:43:31;98645.25;;;20.84;31.54
77212;BME280;66206;0.000;0.000;2023-11-18T01:45:58;98648.09;;;20.96;31.37
77212;BME280;66206;0.000;0.000;2023-11-18T01:48:25;98648.39;;;21.09;31.30
77212;BME280;66206;0.000;0.000;2023-11-18T01:50:52;98649.28;;;20.91;31.45
77212;BME280;66206;0.000;0.000;2023-11-18T01:53:19;98646.28;;;20.88;31.38
77212;BME280;66206;0.000;0.000;2023-11-18T01:55:45;98647.31;;;21.00;31.40
77212;BME280;66206;0.000;0.000;2023-11-18T01:58:12;98646.43;;;20.87;31.32
77212;BME280;66206;0.000;0.000;2023-11-18T02:00:39;98646.03;;;20.94;31.38
77212;BME280;66206;0.000;0.000;2023-11-18T02:03:07;98645.93;;;20.98;31.41
77212;BME280;66206;0.000;0.000;2023-11-18T02:05:34;98647.69;;;20.96;31.43
77212;BME280;66206;0.000;0.000;2023-11-18T02:08:01;98646.99;;;20.82;31.58
77212;BME280;66206;0.000;0.000;2023-11-18T02:10:29;98647.66;;;20.91;31.36
77212;BME280;66206;0.000;0.000;2023-11-18T02:12:57;98650.84;;;20.98;31.35
77212;BME280;66206;0.000;0.000;2023-11-18T02:15:26;98650.14;;;20.69;31.52
77212;BME280;66206;0.000;0.000;2023-11-18T02:17:53;98650.18;;;20.96;31.38
77212;BME280;66206;0.000;0.000;2023-11-18T02:20:21;98654.62;;;20.81;31.58
77212;BME280;66206;0.000;0.000;2023-11-18T02:22:48;98654.49;;;20.97;31.34
77212;BME280;66206;0.000;0.000;2023-11-18T02:25:16;98653.58;;;21.01;31.30
77212;BME280;66206;0.000;0.000;2023-11-18T02:27:43;98652.68;;;20.87;31.40
77212;BME280;66206;0.000;0.000;2023-11-18T02:30:11;98649.89;;;20.81;31.42
77212;BME280;66206;0.000;0.000;2023-11-18T02:32:40;98655.22;;;21.05;31.27
77212;BME280;66206;0.000;0.000;2023-11-18T02:35:08;98659.98;;;20.93;31.33
77212;BME280;66206;0.000;0.000;2023-11-18T02:37:36;98660.86;;;21.01;31.31
77212;BME280;66206;0.000;0.000;2023-11-18T02:40:04;98658.59;;;21.02;31.20
77212;BME280;66206;0.000;0.000;2023-11-18T02:42:32;98654.19;;;20.76;31.44
77212;BME280;66206;0.000;0.000;2023-11-18T02:44:58;98650.66;;;21.00;31.23
77212;BME280;66206;0.000;0.000;2023-11-18T02:47:25;98656.15;;;21.03;31.24
77212;BME280;66206;0.000;0.000;2023-11-18T02:49:53;98657.64;;;20.81;31.50
77212;BME280;66206;0.000;0.000;2023-11-18T02:52:20;98663.01;;;20.67;31.48
77212;BME280;66206;0.000;0.000;2023-11-18T02:54:47;98663.08;;;20.91;31.33
77212;BME280;66206;0.000;0.000;2023-11-18T02:57:14;98664.17;;;20.82;31.46
77212;BME280;66206;0.000;0.000;2023-11-18T02:59:40;98668.35;;;20.84;31.40
77212;BME280;66206;0.000;0.000;2023-11-18T03:02:07;98671.19;;;20.92;31.21
77212;BME280;66206;0.000;0.000;2023-11-18T03:04:34;98670.01;;;20.88;31.40
77212;BME280;66206;0.000;0.000;2023-11-18T03:07:00;98663.83;;;21.04;31.19
77212;BME280;66206;0.000;0.000;2023-11-18T03:09:27;98667.87;;;21.07;31.26
77212;BME280;66206;0.000;0.000;2023-11-18T03:11:54;98673.23;;;20.85;31.23
77212;BME280;66206;0.000;0.000;2023-11-18T03:14:21;98672.95;;;20.80;31.25
77212;BME280;66206;0.000;0.000;2023-11-18T03:16:47;98674.54;;;20.77;31.32
77212;BME280;66206;0.000;0.000;2023-11-18T03:19:14;98676.05;;;20.89;31.28
77212;BME280;66206;0.000;0.000;2023-11-18T03:21:41;98680.38;;;20.83;31.28
77212;BME280;66206;0.000;0.000;2023-11-18T03:24:08;98681.14;;;20.84;31.28
77212;BME280;66206;0.000;0.000;2023-11-18T03:26:35;98680.13;;;20.76;31.34
77212;BME280;66206;0.000;0.000;2023-11-18T03:29:01;98679.75;;;20.89;31.13
77212;BME280;66206;0.000;0.000;2023-11-18T03:31:28;98683.20;;;20.68;31.44
77212;BME280;66206;0.000;0.000;2023-11-18T03:33:55;98683.08;;;20.93;31.23
77212;BME280;66206;0.000;0.000;2023-11-18T03:36:21;98680.68;;;20.88;31.11
77212;BME280;66206;0.000;0.000;2023-11-18T03:38:48;98682.24;;;20.90;31.17
77212;BME280;66206;0.000;0.000;2023-11-18T03:41:15;98679.65;;;20.89;31.13
77212;BME280;66206;0.000;0.000;2023-11-18T03:43:42;98682.44;;;20.79;31.26
77212;BME280;66206;0.000;0.000;2023-11-18T03:46:08;98687.00;;;20.91;31.11
77212;BME280;66206;0.000;0.000;2023-11-18T03:48:35;98685.24;;;20.96;31.06
77212;BME280;66206;0.000;0.000;2023-11-18T03:51:02;98688.61;;;20.81;31.21
77212;BME280;66206;0.000;0.000;2023-11-18T03:53:29;98686.78;;;20.74;31.22
77212;BME280;66206;0.000;0.000;2023-11-18T03:55:55;98690.70;;;20.80;31.17
77212;BME280;66206;0.000;0.000;2023-11-18T03:58:22;98694.02;;;20.68;31.31
77212;BME280;66206;0.000;0.000;2023-11-18T04:00:49;98691.38;;;20.83;31.19
77212;BME280;66206;0.000;0.000;2023-11-18T04:03:15;98692.36;;;20.73;31.20
77212;BME280;66206;0.000;0.000;2023-11-18T04:05:42;98691.23;;;20.81;31.15
77212;BME280;66206;0.000;0.000;2023-11-18T04:08:09;98689.34;;;20.79;31.09
77212;BME280;66206;0.000;0.000;2023-11-18T04:10:35;98690.80;;;20.70;31.17
77212;BME280;66206;0.000;0.000;2023-11-18T04:13:02;98695.61;;;20.86;31.08
77212;BME280;66206;0.000;0.000;2023-11-18T04:15:29;98695.11;;;20.86;31.05
77212;BME280;66206;0.000;0.000;2023-11-18T04:17:55;98692.92;;;20.79;31.08
77212;BME280;66206;0.000;0.000;2023-11-18T04:20:22;98691.71;;;20.87;31.03
77212;BME280;66206;0.000;0.000;2023-11-18T04:22:49;98693.83;;;20.95;31.00
77212;BME280;66206;0.000;0.000;2023-11-18T04:25:16;98696.57;;;20.88;30.93
77212;BME280;66206;0.000;0.000;2023-11-18T04:27:42;98696.35;;;20.96;30.91
77212;BME280;66206;0.000;0.000;2023-11-18T04:30:09;98698.59;;;21.11;30.92
77212;BME280;66206;0.000;0.000;2023-11-18T04:32:36;98698.79;;;20.84;30.99
77212;BME280;66206;0.000;0.000;2023-11-18T04:35:03;98698.41;;;20.91;31.06
77212;BME280;66206;0.000;0.000;2023-11-18T04:37:30;98697.75;;;20.73;31.03
77212;BME280;66206;0.000;0.000;2023-11-18T04:39:56;98700.12;;;20.87;30.84
77212;BME280;66206;0.000;0.000;2023-11-18T04:42:23;98698.38;;;20.87;30.98
77212;BME280;66206;0.000;0.000;2023-11-18T04:44:50;98698.46;;;20.89;30.80
77212;BME280;66206;0.000;0.000;2023-11-18T04:47:16;98698.76;;;20.85;30.89
77212;BME280;66206;0.000;0.000;2023-11-18T04:49:43;98695.69;;;20.92;30.77
77212;BME280;66206;0.000;0.000;2023-11-18T04:52:10;98694.43;;;20.81;30.87
77212;BME280;66206;0.000;0.000;2023-11-18T04:54:37;98692.57;;;20.92;30.83
77212;BME280;66206;0.000;0.000;2023-11-18T04:57:03;98687.28;;;20.85;30.83
77212;BME280;66206;0.000;0.000;2023-11-18T04:59:30;98683.70;;;20.99;30.76
77212;BME280;66206;0.000;0.000;2023-11-18T05:01:57;98680.91;;;21.09;30.79
77212;BME280;66206;0.000;0.000;2023-11-18T05:04:23;98676.78;;;20.90;30.85
77212;BME280;66206;0.000;0.000;2023-11-18T05:06:50;98673.61;;;20.84;30.89
77212;BME280;66206;0.000;0.000;2023-11-18T05:09:17;98669.38;;;20.78;30.86
77212;BME280;66206;0.000;0.000;2023-11-18T05:11:43;98665.07;;;20.90;30.84
77212;BME280;66206;0.000;0.000;2023-11-18T05:14:10;98667.16;;;20.74;30.95
77212;BME280;66206;0.000;0.000;2023-11-18T05:16:37;98672.32;;;20.94;30.77
77212;BME280;66206;0.000;0.000;2023-11-18T05:19:04;98674.92;;;20.76;30.86
77212;BME280;66206;0.000;0.000;2023-11-18T05:21:30;98678.26;;;20.76;30.89
77212;BME280;66206;0.000;0.000;2023-11-18T05:23:57;98679.09;;;20.65;30.97
77212;BME280;66206;0.000;0.000;2023-11-18T05:26:24;98681.01;;;20.87;30.89
77212;BME280;66206;0.000;0.000;2023-11-18T05:28:50;98683.02;;;20.77;30.85
77212;BME280;66206;0.000;0.000;2023-11-18T05:31:17;98684.06;;;20.81;30.87
77212;BME280;66206;0.000;0.000;2023-11-18T05:33:44;98687.38;;;20.86;30.75
77212;BME280;66206;0.000;0.000;2023-11-18T05:36:11;98691.94;;;20.92;30.82
77212;BME280;66206;0.000;0.000;2023-11-18T05:38:38;98691.56;;;20.83;30.73
77212;BME280;66206;0.000;0.000;2023-11-18T05:41:04;98696.07;;;20.75;30.78
77212;BME280;66206;0.000;0.000;2023-11-18T05:43:32;98696.19;;;20.85;30.77
77212;BME280;66206;0.000;0.000;2023-11-18T05:45:59;98698.73;;;20.74;30.77
77212;BME280;66206;0.000;0.000;2023-11-18T05:48:25;98701.05;;;20.71;30.75
77212;BME280;66206;0.000;0.000;2023-11-18T05:50:52;98699.01;;;20.76;30.77
77212;BME280;66206;0.000;0.000;2023-11-18T05:53:19;98698.68;;;20.79;30.73
77212;BME280;66206;0.000;0.000;2023-11-18T05:55:45;98701.45;;;20.73;30.81
77212;BME280;66206;0.000;0.000;2023-11-18T05:58:12;98701.30;;;20.80;30.72
77212;BME280;66206;0.000;0.000;2023-11-18T06:00:39;98698.41;;;20.83;30.72
77212;BME280;66206;0.000;0.000;2023-11-18T06:03:06;98697.63;;;20.79;30.69
77212;BME280;66206;0.000;0.000;2023-11-18T06:05:32;98702.64;;;20.85;30.71
77212;BME280;66206;0.000;0.000;2023-11-18T06:07:59;98706.51;;;20.66;30.78
77212;BME280;66206;0.000;0.000;2023-11-18T06:10:26;98703.55;;;20.90;30.65
77212;BME280;66206;0.000;0.000;2023-11-18T06:12:52;98704.48;;;20.95;30.58
77212;BME280;66206;0.000;0.000;2023-11-18T06:15:19;98708.35;;;20.80;30.75
77212;BME280;66206;0.000;0.000;2023-11-18T06:17:46;98709.31;;;20.86;30.70
77212;BME280;66206;0.000;0.000;2023-11-18T06:20:13;98708.81;;;20.76;30.67
77212;BME280;66206;0.000;0.000;2023-11-18T06:22:39;98706.46;;;20.72;30.76
77212;BME280;66206;0.000;0.000;2023-11-18T06:25:06;98708.98;;;20.75;30.68
77212;BME280;66206;0.000;0.000;2023-11-18T06:27:33;98708.47;;;20.66;30.77
77212;BME280;66206;0.000;0.000;2023-11-18T06:30:00;98703.87;;;20.76;30.71
77212;BME280;66206;0.000;0.000;2023-11-18T06:32:27;98704.17;;;20.88;30.73
77212;BME280;66206;0.000;0.000;2023-11-18T06:34:53;98706.00;;;20.67;30.81
77212;BME280;66206;0.000;0.000;2023-11-18T06:37:20;98708.65;;;20.83;30.66
77212;BME280;66206;0.000;0.000;2023-11-18T06:39:47;98708.27;;;20.66;30.77
77212;BME280;66206;0.000;0.000;2023-11-18T06:42:13;98706.87;;;20.77;30.61
77212;BME280;66206;0.000;0.000;2023-11-18T06:44:40;98710.64;;;20.74;30.74
77212;BME280;66206;0.000;0.000;2023-11-18T06:47:07;98707.36;;;20.65;30.80
77212;BME280;66206;0.000;0.000;2023-11-18T06:49:33;98703.69;;;20.66;30.71
77212;BME280;66206;0.000;0.000;2023-11-18T06:52:00;98704.48;;;20.85;30.59
77212;BME280;66206;0.000;0.000;2023-11-18T06:54:27;98705.57;;;20.59;30.77
77212;BME280;66206;0.000;0.000;2023-11-18T06:56:54;98703.49;;;20.89;30.63
77212;BME280;66206;0.000;0.000;2023-11-18T06:59:20;98702.23;;;20.77;30.62
77212;BME280;66206;0.000;0.000;2023-11-18T07:01:47;98704.24;;;20.78;30.70
77212;BME280;66206;0.000;0.000;2023-11-18T07:04:14;98701.37;;;20.75;30.64
77212;BME280;66206;0.000;0.000;2023-11-18T07:06:40;98703.11;;;20.85;30.74
77212;BME280;66206;0.000;0.000;2023-11-18T07:09:08;98704.29;;;20.69;30.66
77212;BME280;66206;0.000;0.000;2023-11-18T07:11:34;98713.95;;;20.65;30.72
77212;BME280;66206;0.000;0.000;2023-11-18T07:14:01;98717.03;;;20.85;30.63
77212;BME280;66206;0.000;0.000;2023-11-18T07:16:28;98723.75;;;20.77;30.64
77212;BME280;66206;0.000;0.000;2023-11-18T07:18:54;98733.29;;;20.70;30.70
77212;BME280;66206;0.000;0.000;2023-11-18T07:21:21;98738.45;;;20.60;30.65
77212;BME280;66206;0.000;0.000;2023-11-18T07:23:48;98740.21;;;20.75;30.63
77212;BME280;66206;0.000;0.000;2023-11-18T07:26:15;98739.85;;;20.58;30.73
77212;BME280;66206;0.000;0.000;2023-11-18T07:28:41;98741.14;;;20.62;30.69
77212;BME280;66206;0.000;0.000;2023-11-18T07:31:08;98741.52;;;20.77;30.66
77212;BME280;66206;0.000;0.000;2023-11-18T07:33:35;98749.84;;;20.91;30.56
77212;BME280;66206;0.000;0.000;2023-11-18T07:36:02;98748.69;;;20.59;30.69
77212;BME280;66206;0.000;0.000;2023-11-18T07:38:28;98748.82;;;20.69;30.69
77212;BME280;66206;0.000;0.000;2023-11-18T07:40:55;98752.00;;;20.62;30.57
77212;BME280;66206;0.000;0.000;2023-11-18T07:43:22;98754.97;;;20.64;30.61
77212;BME280;66206;0.000;0.000;2023-11-18T07:45:49;98763.14;;;20.88;30.59
77212;BME280;66206;0.000;0.000;2023-11-18T07:48:16;98758.85;;;20.87;30.51
77212;BME280;66206;0.000;0.000;2023-11-18T07:50:43;98757.24;;;20.65;30.54
77212;BME280;66206;0.000;0.000;2023-11-18T07:53:10;98756.86;;;20.72;30.59
77212;BME280;66206;0.000;0.000;2023-11-18T07:55:37;98752.87;;;20.61;30.58
77212;BME280;66206;0.000;0.000;2023-11-18T07:58:03;98756.28;;;20.97;30.50
77212;BME280;66206;0.000;0.000;2023-11-18T08:00:30;98756.80;;;20.75;30.56
77212;BME280;66206;0.000;0.000;2023-11-18T08:02:57;98750.27;;;20.71;30.47
77212;BME280;66206;0.000;0.000;2023-11-18T08:05:23;98747.78;;;20.64;30.59
77212;BME280;66206;0.000;0.000;2023-11-18T08:07:50;98759.04;;;20.69;30.55
77212;BME280;66206;0.000;0.000;2023-11-18T08:10:17;98759.63;;;20.84;30.47
77212;BME280;66206;0.000;0.000;2023-11-18T08:12:44;98762.67;;;20.74;30.49
77212;BME280;66206;0.000;0.000;2023-11-18T08:15:10;98766.01;;;20.68;30.53
77212;BME280;66206;0.000;0.000;2023-11-18T08:17:37;98780.22;;;20.57;30.68
77212;BME280;66206;0.000;0.000;2023-11-18T08:20:04;98786.87;;;20.66;30.59
77212;BME280;66206;0.000;0.000;2023-11-18T08:22:31;98781.80;;;20.72;30.58
77212;BME280;66206;0.000;0.000;2023-11-18T08:24:58;98779.65;;;20.54;30.63
77212;BME280;66206;0.000;0.000;2023-11-18T08:27:24;98767.93;;;20.69;30.41
77212;BME280;66206;0.000;0.000;2023-11-18T08:29:51;98762.09;;;20.70;30.52
77212;BME280;66206;0.000;0.000;2023-11-18T08:32:18;98757.05;;;20.74;30.56
77212;BME280;66206;0.000;0.000;2023-11-18T08:34:44;98758.08;;;20.66;30.57
77212;BME280;66206;0.000;0.000;2023-11-18T08:37:11;98757.07;;;20.68;30.59
77212;BME280;66206;0.000;0.000;2023-11-18T08:39:38;98759.87;;;20.66;30.56
77212;BME280;66206;0.000;0.000;2023-11-18T08:42:05;98760.75;;;20.73;30.55
77212;BME280;66206;0.000;0.000;2023-11-18T08:44:31;98761.79;;;20.64;30.44
77212;BME280;66206;0.000;0.000;2023-11-18T08:46:58;98763.83;;;20.73;30.47
77212;BME280;66206;0.000;0.000;2023-11-18T08:49:25;98767.30;;;20.57;30.48
77212;BME280;66206;0.000;0.000;2023-11-18T08:51:51;98766.55;;;20.70;30.43
77212;BME280;66206;0.000;0.000;2023-11-18T08:54:18;98768.68;;;20.70;30.47
77212;BME280;66206;0.000;0.000;2023-11-18T08:56:45;98762.11;;;20.60;30.39
77212;BME280;66206;0.000;0.000;2023-11-18T08:59:12;98763.18;;;20.68;30.58
77212;BME280;66206;0.000;0.000;2023-11-18T09:01:38;98764.19;;;20.68;30.56
77212;BME280;66206;0.000;0.000;2023-11-18T09:04:05;98767.99;;;20.41;30.69
77212;BME280;66206;0.000;0.000;2023-11-18T09:06:32;98767.99;;;20.60;30.54
77212;BME280;66206;0.000;0.000;2023-11-18T09:08:58;98765.98;;;20.71;30.53
77212;BME280;66206;0.000;0.000;2023-11-18T09:11:25;98764.30;;;20.71;30.43
77212;BME280;66206;0.000;0.000;2023-11-18T09:13:52;98761.32;;;20.70;30.56
77212;BME280;66206;0.000;0.000;2023-11-18T09:16:19;98762.32;;;20.72;30.52
77212;BME280;66206;0.000;0.000;2023-11-18T09:18:46;98760.70;;;20.67;30.46
77212;BME280;66206;0.000;0.000;2023-11-18T09:21:13;98759.96;;;20.56;30.52
77212;BME280;66206;0.000;0.000;2023-11-18T09:23:40;98767.94;;;20.63;30.52
77212;BME280;66206;0.000;0.000;2023-11-18T09:26:07;98771.44;;;20.62;30.53
77212;BME280;66206;0.000;0.000;2023-11-18T09:28:34;98766.41;;;20.66;30.49
77212;BME280;66206;0.000;0.000;2023-11-18T09:31:01;98759.99;;;20.59;30.52
77212;BME280;66206;0.000;0.000;2023-11-18T09:33:28;98750.13;;;20.58;30.42
77212;BME280;66206;0.000;0.000;2023-11-18T09:35:56;98749.47;;;20.64;30.47
77212;BME280;66206;0.000;0.000;2023-11-18T09:38:22;98750.19;;;20.62;30.59
77212;BME280;66206;0.000;0.000;2023-11-18T09:40:50;98755.36;;;20.72;30.50
77212;BME280;66206;0.000;0.000;2023-11-18T09:43:19;98753.98;;;20.69;30.49
77212;BME280;66206;0.000;0.000;2023-11-18T09:45:45;98753.12;;;20.67;30.53
77212;BME280;66206;0.000;0.000;2023-11-18T09:48:12;98751.23;;;20.67;30.56
77212;BME280;66206;0.000;0.000;2023-11-18T09:50:41;98752.44;;;20.55;30.56
77212;BME280;66206;0.000;0.000;2023-11-18T09:53:09;98753.39;;;20.67;30.62
77212;BME280;66206;0.000;0.000;2023-11-18T09:55:38;98749.78;;;20.69;30.49
77212;BME280;66206;0.000;0.000;2023-11-18T09:58:04;98743.79;;;20.55;30.59
77212;BME280;66206;0.000;0.000;2023-11-18T10:00:31;98744.93;;;20.55;30.58
77212;BME280;66206;0.000;0.000;2023-11-18T10:02:58;98750.27;;;20.57;30.54
77212;BME280;66206;0.000;0.000;2023-11-18T10:05:25;98742.80;;;20.63;30.50
77212;BME280;66206;0.000;0.000;2023-11-18T10:07:53;98738.90;;;20.74;30.45
77212;BME280;66206;0.000;0.000;2023-11-18T10:10:20;98741.27;;;20.68;30.46
77212;BME280;66206;0.000;0.000;2023-11-18T10:12:47;98739.50;;;20.68;30.49
77212;BME280;66206;0.000;0.000;2023-11-18T10:15:14;98733.61;;;20.57;30.53
77212;BME280;66206;0.000;0.000;2023-11-18T10:17:41;98729.01;;;20.68;30.47
77212;BME280;66206;0.000;0.000;2023-11-18T10:20:08;98727.83;;;20.76;30.43
77212;BME280;66206;0.000;0.000;2023-11-18T10:22:35;98728.87;;;20.53;30.64
77212;BME280;66206;0.000;0.000;2023-11-18T10:25:02;98732.70;;;20.51;30.58
77212;BME280;66206;0.000;0.000;2023-11-18T10:27:29;98733.31;;;20.60;30.48
77212;BME280;66206;0.000;0.000;2023-11-18T10:29:56;98732.07;;;20.65;30.53
77212;BME280;66206;0.000;0.000;2023-11-18T10:32:23;98732.98;;;20.59;30.52
77212;BME280;66206;0.000;0.000;2023-11-18T10:34:50;98733.76;;;20.55;30.47
77212;BME280;66206;0.000;0.000;2023-11-18T10:37:17;98729.23;;;20.67;30.55
77212;BME280;66206;0.000;0.000;2023-11-18T10:39:46;98723.31;;;20.64;30.59
77212;BME280;66206;0.000;0.000;2023-11-18T10:42:13;98728.77;;;20.52;30.58
77212;BME280;66206;0.000;0.000;2023-11-18T10:44:43;98731.68;;;20.57;30.75
77212;BME280;66206;0.000;0.000;2023-11-18T10:47:05;98733.28;;;20.51;30.60
77212;BME280;66206;0.000;0.000;2023-11-18T10:49:31;98731.80;;;20.49;30.75
77212;BME280;66206;0.000;0.000;2023-11-18T10:51:58;98735.22;;;20.69;30.59
77212;BME280;66206;0.000;0.000;2023-11-18T10:54:27;98735.89;;;20.62;30.62
77212;BME280;66206;0.000;0.000;2023-11-18T10:56:54;98736.85;;;20.53;30.66
77212;BME280;66206;0.000;0.000;2023-11-18T10:59:21;98734.94;;;20.51;30.62
77212;BME280;66206;0.000;0.000;2023-11-18T11:01:47;98737.42;;;20.54;30.72
77212;BME280;66206;0.000;0.000;2023-11-18T11:04:14;98732.48;;;20.64;30.46
77212;BME280;66206;0.000;0.000;2023-11-18T11:06:42;98728.46;;;20.51;30.67
77212;BME280;66206;0.000;0.000;2023-11-18T11:09:09;98724.17;;;20.58;30.57
77212;BME280;66206;0.000;0.000;2023-11-18T11:11:38;98727.43;;;20.65;30.68
77212;BME280;66206;0.000;0.000;2023-11-18T11:14:05;98715.50;;;20.73;30.65
77212;BME280;66206;0.000;0.000;2023-11-18T11:16:38;98715.16;;;20.43;30.68
77212;BME280;66206;0.000;0.000;2023-11-18T11:19:02;98713.74;;;20.50;30.58
77212;BME280;66206;0.000;0.000;2023-11-18T11:21:30;98715.54;;;20.38;30.70
77212;BME280;66206;0.000;0.000;2023-11-18T11:24:00;98718.12;;;20.52;30.62
77212;BME280;66206;0.000;0.000;2023-11-18T11:26:31;98717.14;;;20.68;30.57
77212;BME280;66206;0.000;0.000;2023-11-18T11:28:58;98712.30;;;20.53;30.61
77212;BME280;66206;0.000;0.000;2023-11-18T11:31:23;98714.94;;;20.53;30.72
77212;BME280;66206;0.000;0.000;2023-11-18T11:33:49;98711.84;;;20.48;30.73
77212;BME280;66206;0.000;0.000;2023-11-18T11:36:17;98716.12;;;20.49;30.74
77212;BME280;66206;0.000;0.000;2023-11-18T11:38:41;98712.83;;;20.72;30.65
77212;BME280;66206;0.000;0.000;2023-11-18T11:41:09;98711.39;;;20.52;30.71
77212;BME280;66206;0.000;0.000;2023-11-18T11:43:36;98696.33;;;20.59;30.52
77212;BME280;66206;0.000;0.000;2023-11-18T11:46:03;98695.46;;;20.54;30.68
77212;BME280;66206;0.000;0.000;2023-11-18T11:48:30;98689.75;;;20.54;30.64
77212;BME280;66206;0.000;0.000;2023-11-18T11:51:02;98689.93;;;20.45;30.66
77212;BME280;66206;0.000;0.000;2023-11-18T11:53:24;98694.73;;;20.50;30.68
77212;BME280;66206;0.000;0.000;2023-11-18T11:55:53;98683.72;;;20.69;30.57
77212;BME280;66206;0.000;0.000;2023-11-18T11:58:29;98679.28;;;20.52;30.67
77212;BME280;66206;0.000;0.000;2023-11-18T12:00:51;98677.75;;;20.67;30.57
77212;BME280;66206;0.000;0.000;2023-11-18T12:03:18;98664.89;;;20.61;30.50
77212;BME280;66206;0.000;0.000;2023-11-18T12:05:47;98660.73;;;20.48;30.67
77212;BME280;66206;0.000;0.000;2023-11-18T12:08:16;98657.06;;;20.62;30.55
77212;BME280;66206;0.000;0.000;2023-11-18T12:10:47;98658.87;;;20.48;30.61
77212;BME280;66206;0.000;0.000;2023-11-18T12:13:11;98652.65;;;20.53;30.69
77212;BME280;66206;0.000;0.000;2023-11-18T12:15:54;98643.04;;;20.55;30.66
77212;BME280;66206;0.000;0.000;2023-11-18T12:18:09;98631.46;;;20.68;30.55
77212;BME280;66206;0.000;0.000;2023-11-18T12:20:38;98620.36;;;20.56;30.56
77212;BME280;66206;0.000;0.000;2023-11-18T12:23:03;98611.98;;;20.63;30.64
77212;BME280;66206;0.000;0.000;2023-11-18T12:25:29;98609.41;;;20.77;30.49
77212;BME280;66206;0.000;0.000;2023-11-18T12:27:50;98603.25;;;20.50;30.54
77212;BME280;66206;0.000;0.000;2023-11-18T12:30:40;98594.71;;;20.58;30.49
77212;BME280;66206;0.000;0.000;2023-11-18T12:32:57;98583.95;;;20.62;30.65
77212;BME280;66206;0.000;0.000;2023-11-18T12:35:13;98588.00;;;20.57;30.67
77212;BME280;66206;0.000;0.000;2023-11-18T12:37:47;98587.88;;;20.06;31.33
77212;BME280;66206;0.000;0.000;2023-11-18T12:40:23;98573.17;;;20.50;30.92
77212;BME280;66206;0.000;0.000;2023-11-18T12:43:10;98560.91;;;20.57;30.88
77212;BME280;66206;0.000;0.000;2023-11-18T12:45:14;98551.94;;;20.81;30.57
77212;BME280;66206;0.000;0.000;2023-11-18T12:47:32;98557.46;;;20.54;30.78
77212;BME280;66206;0.000;0.000;2023-11-18T12:49:59;98562.32;;;20.65;30.82
77212;BME280;66206;0.000;0.000;2023-11-18T12:52:26;98563.11;;;20.52;30.85
77212;BME280;66206;0.000;0.000;2023-11-18T12:54:53;98563.61;;;20.55;30.87
77212;BME280;66206;0.000;0.000;2023-11-18T12:57:20;98568.29;;;20.53;30.82
77212;BME280;66206;0.000;0.000;2023-11-18T12:59:47;98559.78;;;20.58;30.84
77212;BME280;66206;0.000;0.000;2023-11-18T13:02:13;98563.76;;;20.44;30.89
77212;BME280;66206;0.000;0.000;2023-11-18T13:04:40;98558.58;;;20.74;30.85
77212;BME280;66206;0.000;0.000;2023-11-18T13:07:07;98558.10;;;20.59;30.82